Time;durP1;ratioP1;P1;durP2;ratioP2;P2;SDS_P1;SDS_P2;PMS_P1;PMS_P2;Temp;Humidity;BMP_temperature;BMP_pressure;BME280_temperature;BME280_humidity;BME280_pressure;Samples;Min_cycle;Max_cycle;Signal;HPM_P1;HPM_P2
2021/01/31 00:00:44;;;;;;;1999.90;999.90;;;19.80;80.30;;;;;;5075071;28;20175;-54
2021/01/31 00:03:23;;;;;;;1999.90;999.90;;;19.90;80.00;;;;;;5061116;28;20216;-59
2021/01/31 00:05:52;;;;;;;1999.90;999.90;;;19.90;79.80;;;;;;5075116;28;20156;-60
2021/01/31 00:08:22;;;;;;;1999.90;999.90;;;19.80;80.40;;;;;;5074776;28;20525;-59
2021/01/31 00:10:50;;;;;;;1999.90;999.90;;;19.80;81.40;;;;;;5074788;28;20188;-56
2021/01/31 00:13:18;;;;;;;1999.90;999.90;;;19.70;80.70;;;;;;5074582;28;20254;-58
2021/01/31 00:15:47;;;;;;;1999.90;999.90;;;19.70;80.70;;;;;;5074651;28;20176;-56
2021/01/31 00:18:17;;;;;;;1999.90;999.90;;;19.70;80.70;;;;;;5074509;28;20200;-58
2021/01/31 00:20:47;;;;;;;1999.90;999.90;;;19.70;80.70;;;;;;5074574;28;20164;-54
2021/01/31 00:23:14;;;;;;;1999.90;999.90;;;19.70;80.70;;;;;;5074543;28;20164;-60
2021/01/31 00:25:42;;;;;;;1999.90;999.90;;;19.80;80.60;;;;;;5074427;28;20176;-60
2021/01/31 00:28:10;;;;;;;1999.90;999.90;;;19.70;81.00;;;;;;5074406;28;20256;-55
2021/01/31 00:30:39;;;;;;;1999.90;999.90;;;19.60;81.50;;;;;;5074216;28;20180;-60
2021/01/31 00:33:08;;;;;;;1999.90;999.90;;;19.60;81.80;;;;;;5074214;28;20200;-60
2021/01/31 00:35:37;;;;;;;1999.90;999.90;;;19.50;82.10;;;;;;5074230;28;20583;-57
2021/01/31 00:38:05;;;;;;;1999.90;999.90;;;19.50;82.30;;;;;;5074104;28;20168;-59
2021/01/31 00:40:32;;;;;;;1999.90;999.90;;;19.60;82.00;;;;;;5074150;28;20524;-60
2021/01/31 00:42:59;;;;;;;1999.90;999.90;;;19.60;81.70;;;;;;5074068;28;20169;-57
2021/01/31 00:45:28;;;;;;;1999.90;999.90;;;19.70;81.20;;;;;;5074153;28;20175;-59
2021/01/31 00:47:55;;;;;;;1999.90;999.90;;;19.80;81.20;;;;;;5074065;28;20172;-59
2021/01/31 00:50:26;;;;;;;1999.90;999.90;;;19.80;81.00;;;;;;5073911;28;20650;-57
2021/01/31 00:52:53;;;;;;;1999.90;999.90;;;19.90;80.70;;;;;;5073988;28;20563;-59
2021/01/31 00:55:20;;;;;;;1999.90;999.90;;;19.80;80.60;;;;;;5074044;28;20168;-59
2021/01/31 00:57:47;;;;;;;1999.90;999.90;;;19.80;80.90;;;;;;5073795;28;20199;-59
2021/01/31 01:00:17;;;;;;;1999.90;999.90;;;19.80;80.90;;;;;;5073696;28;20161;-59
2021/01/31 01:02:44;;;;;;;1999.90;999.90;;;19.90;80.60;;;;;;5073537;28;20226;-60
2021/01/31 01:05:12;;;;;;;1999.90;999.90;;;19.90;80.70;;;;;;5073621;28;20561;-59
2021/01/31 01:07:40;;;;;;;1999.90;999.90;;;19.90;80.60;;;;;;5073635;28;20176;-59
2021/01/31 01:10:07;;;;;;;1999.90;999.90;;;19.90;80.50;;;;;;5073617;28;20156;-56
2021/01/31 01:12:34;;;;;;;1999.90;999.90;;;20.00;80.40;;;;;;5073558;28;20198;-59
2021/01/31 01:15:01;;;;;;;1999.90;999.90;;;20.10;80.00;;;;;;5072690;28;20228;-59
2021/01/31 01:17:28;;;;;;;1999.90;999.90;;;20.10;79.90;;;;;;5073563;28;20168;-59
2021/01/31 01:19:55;;;;;;;1999.90;999.90;;;20.10;79.50;;;;;;5073320;28;20654;-55
2021/01/31 01:22:21;;;;;;;1999.90;999.90;;;20.20;79.20;;;;;;5073308;28;20172;-59
2021/01/31 01:24:52;;;;;;;1999.90;999.90;;;20.20;79.30;;;;;;5073320;28;20183;-59
2021/01/31 01:27:23;;;;;;;1999.90;999.90;;;20.20;79.50;;;;;;5073246;28;20239;-59
2021/01/31 01:29:50;;;;;;;1999.90;999.90;;;20.20;79.60;;;;;;5073298;28;20514;-59
2021/01/31 01:32:17;;;;;;;1999.90;999.90;;;20.20;79.60;;;;;;5073246;28;20160;-58
2021/01/31 01:34:43;;;;;;;1999.90;999.90;;;20.20;79.60;;;;;;5073105;28;20670;-59
2021/01/31 01:37:11;;;;;;;1999.90;999.90;;;20.20;79.70;;;;;;5073180;28;20168;-59
2021/01/31 01:39:38;;;;;;;1999.90;999.90;;;20.20;79.40;;;;;;5073223;28;20718;-59
2021/01/31 01:42:10;;;;;;;1999.90;999.90;;;20.30;79.10;;;;;;5073306;28;20251;-59
2021/01/31 01:44:38;;;;;;;1999.90;999.90;;;20.30;79.30;;;;;;5073055;28;20175;-58
2021/01/31 01:47:14;;;;;;;1999.90;999.90;;;20.40;79.10;;;;;;5073097;28;20161;-59
2021/01/31 01:49:45;;;;;;;1999.90;999.90;;;20.40;78.50;;;;;;5072898;28;20167;-57
2021/01/31 01:52:18;;;;;;;1999.90;999.90;;;20.40;78.40;;;;;;5072893;28;20214;-56
2021/01/31 01:54:52;;;;;;;1999.90;999.90;;;20.40;78.40;;;;;;5072871;28;20188;-59
2021/01/31 01:57:23;;;;;;;1999.90;999.90;;;20.50;78.50;;;;;;5073032;28;20187;-59
2021/01/31 01:59:53;;;;;;;1999.90;999.90;;;20.40;78.50;;;;;;5072916;28;20160;-56
2021/01/31 02:02:26;;;;;;;1999.90;999.90;;;20.40;79.00;;;;;;5072610;28;20727;-58
2021/01/31 02:04:54;;;;;;;1999.90;999.90;;;20.40;78.90;;;;;;5072755;28;20252;-59
2021/01/31 02:07:21;;;;;;;1999.90;999.90;;;20.40;79.20;;;;;;5072821;28;20216;-59
2021/01/31 02:09:49;;;;;;;1999.90;999.90;;;20.40;79.20;;;;;;5072809;28;20169;-59
2021/01/31 02:12:21;;;;;;;1999.90;999.90;;;20.40;79.00;;;;;;5072617;28;20176;-58
2021/01/31 02:14:50;;;;;;;1999.90;999.90;;;20.50;78.50;;;;;;5072596;28;20219;-56
2021/01/31 02:17:35;;;;;;;1999.90;999.90;;;20.50;78.20;;;;;;5072672;28;20179;-58
2021/01/31 02:20:31;;;;;;;1999.90;999.90;;;20.50;77.90;;;;;;5072993;28;20149;-52
2021/01/31 02:23:13;;;;;;;1999.90;999.90;;;20.50;78.40;;;;;;5072345;28;20184;-53
2021/01/31 02:25:59;;;;;;;1999.90;999.90;;;20.50;78.80;;;;;;5073341;28;20195;-59
2021/01/31 02:28:56;;;;;;;1999.90;999.90;;;20.50;78.50;;;;;;5076625;28;20206;-56
2021/01/31 02:31:45;;;;;;;1999.90;999.90;;;20.60;78.30;;;;;;5076523;28;20176;-59
2021/01/31 02:34:24;;;;;;;1999.90;999.90;;;20.50;78.40;;;;;;5076573;28;20203;-59
2021/01/31 02:37:43;;;;;;;1999.90;999.90;;;20.50;78.20;;;;;;5076502;28;20168;-59
2021/01/31 02:40:23;;;;;;;1999.90;999.90;;;20.50;78.70;;;;;;4975629;28;20531;-59
2021/01/31 02:42:55;;;;;;;1999.90;999.90;;;20.50;79.50;;;;;;4975652;28;20192;-57
2021/01/31 02:45:40;;;;;;;1999.90;999.90;;;20.50;78.80;;;;;;5047164;28;20216;-59
2021/01/31 02:48:17;;;;;;;1999.90;999.90;;;20.60;78.70;;;;;;5076493;28;20149;-59
2021/01/31 02:50:58;;;;;;;1999.90;999.90;;;20.60;79.00;;;;;;5076348;28;20235;-53
2021/01/31 02:53:36;;;;;;;1999.90;999.90;;;20.50;79.00;;;;;;5076262;28;20223;-58
2021/01/31 02:56:23;;;;;;;1999.90;999.90;;;20.50;78.80;;;;;;5076324;28;20156;-57
2021/01/31 02:59:08;;;;;;;1999.90;999.90;;;20.40;78.80;;;;;;5076137;28;20568;-59
2021/01/31 03:01:44;;;;;;;1999.90;999.90;;;20.30;78.90;;;;;;5076208;28;20156;-59
2021/01/31 03:04:29;;;;;;;1999.90;999.90;;;20.50;78.80;;;;;;5075862;28;20261;-58
2021/01/31 03:07:10;;;;;;;1999.90;999.90;;;20.50;78.80;;;;;;5076008;28;20247;-56
2021/01/31 03:09:46;;;;;;;1999.90;999.90;;;20.50;78.70;;;;;;5076209;28;20641;-59
2021/01/31 03:12:29;;;;;;;1999.90;999.90;;;20.50;78.90;;;;;;5075824;28;20161;-59
2021/01/31 03:14:59;;;;;;;1999.90;999.90;;;20.50;78.90;;;;;;5075781;28;20258;-59
2021/01/31 03:17:55;;;;;;;1999.90;999.90;;;20.50;78.70;;;;;;5076337;28;20299;-59
2021/01/31 03:20:37;;;;;;;1999.90;999.90;;;20.50;78.30;;;;;;5064996;28;20255;-59
2021/01/31 03:23:29;;;;;;;1999.90;999.90;;;20.50;78.10;;;;;;5075577;28;20161;-57
2021/01/31 03:26:22;;;;;;;1999.90;999.90;;;20.50;77.90;;;;;;5075552;28;20239;-59
2021/01/31 03:28:50;;;;;;;1999.90;999.90;;;20.50;78.10;;;;;;5075626;28;20157;-58
2021/01/31 03:31:21;;;;;;;1999.90;999.90;;;20.50;78.10;;;;;;5075524;28;20160;-59
2021/01/31 03:33:56;;;;;;;1999.90;999.90;;;20.40;78.00;;;;;;5075416;28;20204;-57
2021/01/31 03:36:25;;;;;;;1999.90;999.90;;;20.40;78.10;;;;;;5075442;28;20218;-57
2021/01/31 03:38:53;;;;;;;1999.90;999.90;;;20.40;78.20;;;;;;5074564;28;20169;-59
2021/01/31 03:41:25;;;;;;;1999.90;999.90;;;20.40;78.40;;;;;;5075388;28;20171;-59
2021/01/31 03:43:52;;;;;;;1999.90;999.90;;;20.50;78.50;;;;;;5075304;28;20689;-59
2021/01/31 03:46:28;;;;;;;1999.90;999.90;;;20.50;78.40;;;;;;5075278;28;20168;-59
2021/01/31 03:49:01;;;;;;;1999.90;999.90;;;20.40;78.40;;;;;;5075229;28;20218;-59
2021/01/31 03:51:30;;;;;;;1999.90;999.90;;;20.50;78.70;;;;;;5075250;28;20163;-58
2021/01/31 03:53:58;;;;;;;1999.90;999.90;;;20.40;79.10;;;;;;5074985;28;20554;-59
2021/01/31 03:56:36;;;;;;;1999.90;999.90;;;20.40;79.70;;;;;;5075061;28;20164;-60
2021/01/31 03:59:05;;;;;;;1999.90;999.90;;;20.30;79.60;;;;;;5075049;28;20518;-59
2021/01/31 04:01:37;;;;;;;1999.90;999.90;;;20.40;79.40;;;;;;5074992;28;20719;-59
2021/01/31 04:04:21;;;;;;;1999.90;999.90;;;20.50;79.30;;;;;;5074734;28;20227;-59
2021/01/31 04:06:53;;;;;;;1999.90;999.90;;;20.50;78.80;;;;;;5074915;28;20512;-59
2021/01/31 04:09:21;;;;;;;1999.90;999.90;;;20.50;78.70;;;;;;5074834;28;20153;-58
2021/01/31 04:11:48;;;;;;;1999.90;999.90;;;20.40;78.80;;;;;;5074788;28;20236;-59
2021/01/31 04:14:29;;;;;;;1999.90;999.90;;;20.40;79.10;;;;;;5074574;28;20211;-47
2021/01/31 04:16:55;;;;;;;1999.90;999.90;;;20.50;79.80;;;;;;5074670;28;20645;-59
2021/01/31 04:19:22;;;;;;;1999.90;999.90;;;20.40;80.30;;;;;;5074572;28;20572;-59
2021/01/31 04:21:49;;;;;;;1999.90;999.90;;;20.40;79.80;;;;;;5074558;28;20169;-58
2021/01/31 04:24:16;;;;;;;1999.90;999.90;;;20.40;80.30;;;;;;5074514;28;20210;-52
2021/01/31 04:26:43;;;;;;;1999.90;999.90;;;20.30;80.50;;;;;;5074615;28;20161;-49
2021/01/31 04:29:11;;;;;;;1999.90;999.90;;;20.30;80.80;;;;;;5074408;28;20211;-58
2021/01/31 04:31:38;;;;;;;1999.90;999.90;;;20.30;80.60;;;;;;5074332;28;20666;-59
2021/01/31 04:34:04;;;;;;;1999.90;999.90;;;20.30;80.90;;;;;;5074288;28;20215;-53
2021/01/31 04:36:31;;;;;;;1999.90;999.90;;;20.30;80.70;;;;;;5074249;28;20168;-54
2021/01/31 04:38:58;;;;;;;1999.90;999.90;;;20.30;80.70;;;;;;5074228;28;20682;-58
2021/01/31 04:41:39;;;;;;;1999.90;999.90;;;20.30;80.80;;;;;;5074150;28;20164;-59
2021/01/31 04:44:09;;;;;;;1999.90;999.90;;;20.40;80.80;;;;;;5074184;28;20164;-58
2021/01/31 04:46:45;;;;;;;1999.90;999.90;;;20.40;81.20;;;;;;5074110;28;20167;-54
2021/01/31 04:49:30;;;;;;;1999.90;999.90;;;20.40;81.20;;;;;;5074069;28;20160;-58
2021/01/31 04:52:13;;;;;;;1999.90;999.90;;;20.40;81.50;;;;;;5073953;28;20161;-59
2021/01/31 04:55:16;;;;;;;1999.90;999.90;;;20.40;81.20;;;;;;5073888;28;20202;-56
2021/01/31 04:57:54;;;;;;;1999.90;999.90;;;20.50;81.00;;;;;;5074149;28;20201;-57
2021/01/31 05:00:25;;;;;;;1999.90;999.90;;;20.50;81.00;;;;;;5073899;28;20163;-53
2021/01/31 05:02:57;;;;;;;1999.90;999.90;;;20.50;80.60;;;;;;5073563;28;20222;-58
2021/01/31 05:05:41;;;;;;;1999.90;999.90;;;20.50;80.50;;;;;;5073723;28;20165;-57
2021/01/31 05:08:20;;;;;;;1999.90;999.90;;;20.60;80.30;;;;;;5073667;28;20171;-58
2021/01/31 05:10:52;;;;;;;1999.90;999.90;;;20.70;80.00;;;;;;5073718;28;20184;-58
2021/01/31 05:13:43;;;;;;;1999.90;999.90;;;20.70;79.50;;;;;;5073633;28;20634;-58
2021/01/31 05:16:14;;;;;;;1999.90;999.90;;;20.70;79.30;;;;;;5073505;28;20167;-59
2021/01/31 05:18:48;;;;;;;1999.90;999.90;;;20.80;79.00;;;;;;5073364;28;20168;-53
2021/01/31 05:21:20;;;;;;;1999.90;999.90;;;20.90;78.80;;;;;;5073480;28;20211;-54
2021/01/31 05:24:18;;;;;;;1999.90;999.90;;;21.00;78.10;;;;;;5073624;28;20160;-57
2021/01/31 05:26:52;;;;;;;1999.90;999.90;;;21.00;77.90;;;;;;5073123;28;20180;-59
2021/01/31 05:29:29;;;;;;;1999.90;999.90;;;21.00;77.60;;;;;;5073459;28;20157;-58
2021/01/31 05:32:17;;;;;;;1999.90;999.90;;;21.10;77.50;;;;;;5073185;28;20169;-55
2021/01/31 05:34:51;;;;;;;1999.90;999.90;;;21.20;77.10;;;;;;5073113;28;20215;-54
2021/01/31 05:37:24;;;;;;;1999.90;999.90;;;21.30;76.70;;;;;;5073386;28;20691;-56
2021/01/31 05:40:12;;;;;;;1999.90;999.90;;;21.40;76.30;;;;;;5073458;28;20689;-59
2021/01/31 05:42:45;;;;;;;1999.90;999.90;;;21.60;75.60;;;;;;5055342;28;20604;-56
2021/01/31 05:45:20;;;;;;;1999.90;999.90;;;21.50;75.00;;;;;;5073075;28;20173;-52
2021/01/31 05:47:50;;;;;;;1999.90;999.90;;;21.60;75.30;;;;;;5073102;28;20168;-58
2021/01/31 05:50:40;;;;;;;1999.90;999.90;;;21.70;75.00;;;;;;5072892;28;20176;-58
2021/01/31 05:53:33;;;;;;;1999.90;999.90;;;21.80;74.20;;;;;;5072920;28;20243;-57
2021/01/31 05:56:22;;;;;;;1999.90;999.90;;;21.90;74.20;;;;;;5072796;28;20511;-59
2021/01/31 05:59:11;;;;;;;1999.90;999.90;;;21.90;73.90;;;;;;5073200;28;20525;-57
2021/01/31 06:02:20;;;;;;;1999.90;999.90;;;21.90;73.30;;;;;;5072508;28;20161;-56
2021/01/31 06:04:47;;;;;;;1999.90;999.90;;;22.00;73.80;;;;;;4971951;28;20270;-55
2021/01/31 06:07:19;;;;;;;1999.90;999.90;;;21.90;73.40;;;;;;5058191;28;20218;-58
2021/01/31 06:09:51;;;;;;;1999.90;999.90;;;22.00;73.00;;;;;;5072793;28;20623;-59
2021/01/31 06:12:21;;;;;;;1999.90;999.90;;;22.10;72.60;;;;;;5072829;28;20171;-51
2021/01/31 06:14:59;;;;;;;1999.90;999.90;;;22.20;71.90;;;;;;5072697;28;20208;-58
2021/01/31 06:17:30;;;;;;;1999.90;999.90;;;22.30;71.80;;;;;;5072756;28;20507;-56
2021/01/31 06:20:04;;;;;;;1999.90;999.90;;;22.50;70.70;;;;;;5072846;28;20157;-59
2021/01/31 06:22:57;;;;;;;1999.90;999.90;;;22.60;70.10;;;;;;5072767;28;20263;-56
2021/01/31 06:25:27;;;;;;;1999.90;999.90;;;22.60;70.10;;;;;;5068792;28;20180;-56
2021/01/31 06:28:18;;;;;;;1999.90;999.90;;;22.70;69.90;;;;;;5072756;28;20176;-59
2021/01/31 06:30:51;;;;;;;1999.90;999.90;;;22.90;69.00;;;;;;5072118;28;20245;-58
2021/01/31 06:33:18;;;;;;;1999.90;999.90;;;23.00;68.50;;;;;;5072558;28;20705;-54
2021/01/31 06:35:45;;;;;;;1999.90;999.90;;;23.00;68.00;;;;;;5072553;28;20199;-59
2021/01/31 06:38:30;;;;;;;1999.90;999.90;;;23.10;67.30;;;;;;5072573;28;20160;-55
2021/01/31 06:41:15;;;;;;;1999.90;999.90;;;23.10;67.20;;;;;;5072602;28;20167;-58
2021/01/31 06:44:00;;;;;;;1999.90;999.90;;;23.10;66.90;;;;;;5072635;28;20192;-57
2021/01/31 06:46:42;;;;;;;1999.90;999.90;;;23.60;66.30;;;;;;5072601;28;20235;-49
2021/01/31 06:49:15;;;;;;;1999.90;999.90;;;23.90;63.60;;;;;;5072491;28;20149;-57
2021/01/31 06:51:57;;;;;;;1999.90;999.90;;;24.10;62.70;;;;;;5072492;28;20236;-58
2021/01/31 06:54:48;;;;;;;1999.90;999.90;;;24.10;60.90;;;;;;5072618;28;20196;-48
2021/01/31 06:57:32;;;;;;;1999.90;999.90;;;24.10;60.40;;;;;;5072368;28;20163;-53
2021/01/31 07:00:33;;;;;;;1999.90;999.90;;;24.20;60.20;;;;;;5072360;28;20156;-58
2021/01/31 07:03:10;;;;;;;1999.90;999.90;;;24.30;59.90;;;;;;5072454;28;20574;-58
2021/01/31 07:06:01;;;;;;;1999.90;999.90;;;24.30;61.00;;;;;;5072314;28;20201;-58
2021/01/31 07:08:47;;;;;;;1999.90;999.90;;;24.10;61.20;;;;;;5072253;28;20654;-58
2021/01/31 07:11:18;;;;;;;1999.90;999.90;;;24.10;61.10;;;;;;5072279;28;20145;-53
2021/01/31 07:14:16;;;;;;;1999.90;999.90;;;24.20;60.70;;;;;;5074412;28;20342;-56
2021/01/31 07:17:04;;;;;;;1999.90;999.90;;;24.20;60.50;;;;;;5075857;28;20156;-55
2021/01/31 07:19:42;;;;;;;1999.90;999.90;;;24.30;60.30;;;;;;5075819;28;20635;-58
2021/01/31 07:22:24;;;;;;;1999.90;999.90;;;24.30;60.10;;;;;;5075728;28;20218;-59
2021/01/31 07:25:00;;;;;;;1999.90;999.90;;;24.30;60.10;;;;;;5075608;28;20164;-52
2021/01/31 07:27:57;;;;;;;1999.90;999.90;;;24.30;60.30;;;;;;5075668;28;20210;-58
2021/01/31 07:30:53;;;;;;;1999.90;999.90;;;24.30;60.60;;;;;;5075610;28;20169;-52
2021/01/31 07:33:45;;;;;;;1999.90;999.90;;;24.30;60.40;;;;;;5073842;28;20200;-56
2021/01/31 07:36:21;;;;;;;1999.90;999.90;;;24.40;59.80;;;;;;5075200;28;20226;-56
2021/01/31 07:38:56;;;;;;;1999.90;999.90;;;24.40;60.40;;;;;;5075410;28;20164;-58
2021/01/31 07:41:24;;;;;;;1999.90;999.90;;;24.30;60.50;;;;;;5075347;28;20157;-52
2021/01/31 07:44:18;;;;;;;1999.90;999.90;;;24.40;60.30;;;;;;5075255;28;20192;-58
2021/01/31 07:46:45;;;;;;;1999.90;999.90;;;24.50;60.00;;;;;;5071642;28;20216;-57
2021/01/31 07:49:12;;;;;;;1999.90;999.90;;;24.60;59.30;;;;;;5075138;28;20161;-58
2021/01/31 07:51:39;;;;;;;1999.90;999.90;;;24.60;59.40;;;;;;5075023;28;20279;-56
2021/01/31 07:54:27;;;;;;;1999.90;999.90;;;24.70;59.00;;;;;;5075081;28;20228;-57
2021/01/31 07:57:14;;;;;;;1999.90;999.90;;;24.80;58.90;;;;;;5074938;28;20207;-55
2021/01/31 07:59:43;;;;;;;1999.90;999.90;;;25.20;58.10;;;;;;5057124;28;20169;-54
2021/01/31 08:02:29;;;;;;;1999.90;999.90;;;25.40;57.70;;;;;;5074751;28;20208;-52
2021/01/31 08:04:55;;;;;;;1999.90;999.90;;;25.50;57.50;;;;;;5074899;28;20517;-52
2021/01/31 08:07:59;;;;;;;1999.90;999.90;;;25.80;56.60;;;;;;5074853;28;20623;-58
2021/01/31 08:10:46;;;;;;;1999.90;999.90;;;26.30;55.80;;;;;;5074806;28;20583;-58
2021/01/31 08:13:32;;;;;;;1999.90;999.90;;;27.70;52.60;;;;;;5074608;28;20168;-54
2021/01/31 08:15:59;;;;;;;1999.90;999.90;;;28.10;51.40;;;;;;5074945;28;20209;-57
2021/01/31 08:18:26;;;;;;;1999.90;999.90;;;28.10;50.50;;;;;;5074656;28;20165;-56
2021/01/31 08:20:53;;;;;;;1999.90;999.90;;;27.50;51.60;;;;;;5074649;28;20173;-52
2021/01/31 08:23:23;;;;;;;1999.90;999.90;;;27.00;52.70;;;;;;5074194;28;20251;-58
2021/01/31 08:26:05;;;;;;;1999.90;999.90;;;26.80;53.30;;;;;;5074248;28;20181;-56
2021/01/31 08:28:34;;;;;;;1999.90;999.90;;;27.00;53.00;;;;;;5074436;28;20629;-54
2021/01/31 08:31:10;;;;;;;1999.90;999.90;;;26.80;53.30;;;;;;5074460;28;20165;-52
2021/01/31 08:33:57;;;;;;;1999.90;999.90;;;26.60;54.10;;;;;;5074172;28;20195;-56
2021/01/31 08:36:29;;;;;;;1999.90;999.90;;;26.60;54.30;;;;;;5074304;28;20156;-49
2021/01/31 08:38:58;;;;;;;1999.90;999.90;;;26.60;54.30;;;;;;5074248;28;20639;-56
2021/01/31 08:41:36;;;;;;;1999.90;999.90;;;26.50;54.30;;;;;;5074200;28;20176;-52
2021/01/31 08:44:11;;;;;;;1999.90;999.90;;;26.60;54.40;;;;;;5074203;28;20172;-52
2021/01/31 08:47:00;;;;;;;1999.90;999.90;;;26.50;53.90;;;;;;5074185;28;20251;-56
2021/01/31 08:49:27;;;;;;;1999.90;999.90;;;26.30;54.50;;;;;;5074109;28;20541;-57
2021/01/31 08:52:06;;;;;;;1999.90;999.90;;;26.20;54.80;;;;;;5073990;28;20169;-57
2021/01/31 08:54:34;;;;;;;1999.90;999.90;;;26.10;55.20;;;;;;5074012;28;20674;-54
2021/01/31 08:57:11;;;;;;;1999.90;999.90;;;26.00;55.00;;;;;;5073705;28;20172;-58
2021/01/31 08:59:44;;;;;;;1999.90;999.90;;;25.90;55.20;;;;;;5073850;28;20184;-56
2021/01/31 09:02:20;;;;;;;1999.90;999.90;;;26.00;55.50;;;;;;5073437;28;20220;-52
2021/01/31 09:05:06;;;;;;;1999.90;999.90;;;25.80;55.90;;;;;;5073863;28;20559;-55
2021/01/31 09:07:38;;;;;;;1999.90;999.90;;;26.10;55.60;;;;;;5073828;28;20688;-53
2021/01/31 09:10:20;;;;;;;1999.90;999.90;;;26.10;55.30;;;;;;5073722;28;20226;-57
2021/01/31 09:12:47;;;;;;;1999.90;999.90;;;26.30;54.90;;;;;;5073675;28;20239;-55
2021/01/31 09:15:24;;;;;;;1999.90;999.90;;;26.40;54.50;;;;;;5073431;28;20682;-58
2021/01/31 09:17:52;;;;;;;1999.90;999.90;;;26.50;54.40;;;;;;5073519;28;20149;-58
2021/01/31 09:20:29;;;;;;;1999.90;999.90;;;26.60;54.10;;;;;;5073427;28;20173;-55
2021/01/31 09:23:00;;;;;;;1999.90;999.90;;;26.50;54.50;;;;;;5073371;28;20164;-58
2021/01/31 09:25:33;;;;;;;1999.90;999.90;;;26.60;54.00;;;;;;5073382;28;20153;-49
2021/01/31 09:28:00;;;;;;;1999.90;999.90;;;26.70;54.10;;;;;;5073322;28;20160;-55
2021/01/31 09:30:29;;;;;;;1999.90;999.90;;;26.90;53.80;;;;;;5073309;28;20581;-58
2021/01/31 09:33:03;;;;;;;1999.90;999.90;;;27.10;53.30;;;;;;5073232;28;20703;-58
2021/01/31 09:35:35;;;;;;;1999.90;999.90;;;27.10;53.20;;;;;;5072568;28;20283;-53
2021/01/31 09:38:16;;;;;;;1999.90;999.90;;;27.40;52.80;;;;;;5073441;28;20627;-57
2021/01/31 09:40:44;;;;;;;1999.90;999.90;;;28.10;51.20;;;;;;5073202;28;20174;-57
2021/01/31 09:43:18;;;;;;;1999.90;999.90;;;28.40;50.30;;;;;;5073081;28;20658;-45
2021/01/31 09:45:51;;;;;;;1999.90;999.90;;;28.10;50.50;;;;;;5073093;28;20513;-54
2021/01/31 09:48:22;;;;;;;1999.90;999.90;;;28.00;51.00;;;;;;5073467;28;20202;-58
2021/01/31 09:50:58;;;;;;;1999.90;999.90;;;28.00;51.10;;;;;;5072850;28;20704;-58
2021/01/31 09:53:29;;;;;;;1999.90;999.90;;;28.10;50.40;;;;;;5072908;28;20195;-44
2021/01/31 09:55:56;;;;;;;1999.90;999.90;;;28.00;50.30;;;;;;5072913;28;20250;-58
2021/01/31 09:58:31;;;;;;;1999.90;999.90;;;27.50;52.00;;;;;;5072870;28;20160;-58
2021/01/31 10:01:11;;;;;;;1999.90;999.90;;;27.40;52.20;;;;;;5072780;28;20168;-53
2021/01/31 10:03:39;;;;;;;1999.90;999.90;;;27.90;51.20;;;;;;5072767;28;20314;-52
2021/01/31 10:06:17;;;;;;;1999.90;999.90;;;28.30;51.30;;;;;;5073381;28;20254;-47
2021/01/31 10:09:00;;;;;;;1999.90;999.90;;;28.00;50.20;;;;;;5072775;28;20238;-52
2021/01/31 10:11:41;;;;;;;1999.90;999.90;;;27.50;51.50;;;;;;5072804;28;20231;-56
2021/01/31 10:14:14;;;;;;;1999.90;999.90;;;27.70;51.10;;;;;;5072889;28;20266;-48
2021/01/31 10:16:42;;;;;;;1999.90;999.90;;;27.90;51.70;;;;;;5072812;28;20161;-47
2021/01/31 10:19:15;;;;;;;1999.90;999.90;;;27.80;52.20;;;;;;5072742;28;20180;-55
2021/01/31 10:21:54;;;;;;;1999.90;999.90;;;27.80;52.10;;;;;;5072729;28;20242;-52
2021/01/31 10:24:32;;;;;;;1999.90;999.90;;;27.90;52.00;;;;;;5072677;28;20164;-53
2021/01/31 10:27:08;;;;;;;1999.90;999.90;;;27.90;52.00;;;;;;5072586;28;20172;-47
2021/01/31 10:29:35;;;;;;;1999.90;999.90;;;27.80;52.30;;;;;;5072688;28;20240;-58
2021/01/31 10:32:35;;;;;;;1999.90;999.90;;;27.80;52.40;;;;;;5072626;28;20256;-50
2021/01/31 10:35:30;;;;;;;1999.90;999.90;;;27.90;52.40;;;;;;5072501;28;20200;-54
2021/01/31 10:37:58;;;;;;;1999.90;999.90;;;28.00;52.00;;;;;;5072666;28;20160;-49
2021/01/31 10:40:26;;;;;;;1999.90;999.90;;;28.20;51.50;;;;;;5054979;28;20267;-58
2021/01/31 10:42:53;;;;;;;1999.90;999.90;;;28.40;51.00;;;;;;5072635;28;20530;-54
2021/01/31 10:45:23;;;;;;;1999.90;999.90;;;28.80;50.80;;;;;;5072481;28;20165;-58
2021/01/31 10:47:50;;;;;;;1999.90;999.90;;;28.80;50.40;;;;;;5074924;28;20255;-53
2021/01/31 10:50:19;;;;;;;1999.90;999.90;;;28.70;50.50;;;;;;5076221;28;20178;-53
2021/01/31 10:52:48;;;;;;;1999.90;999.90;;;28.60;50.80;;;;;;5076376;28;20180;-47
2021/01/31 10:55:15;;;;;;;1999.90;999.90;;;28.60;50.60;;;;;;5076147;28;20204;-55
2021/01/31 10:57:42;;;;;;;1999.90;999.90;;;28.60;50.80;;;;;;5076138;28;20171;-50
2021/01/31 11:00:11;;;;;;;1999.90;999.90;;;28.60;50.60;;;;;;5076057;28;20172;-53
2021/01/31 11:02:38;;;;;;;1999.90;999.90;;;28.60;50.30;;;;;;5075690;28;20220;-52
2021/01/31 11:05:07;;;;;;;1999.90;999.90;;;28.40;51.00;;;;;;5075713;28;20184;-46
2021/01/31 11:07:34;;;;;;;1999.90;999.90;;;28.50;51.10;;;;;;5075908;28;20516;-54
2021/01/31 11:10:02;;;;;;;1999.90;999.90;;;29.20;50.40;;;;;;5075904;28;20172;-53
2021/01/31 11:12:29;;;;;;;1999.90;999.90;;;29.90;48.90;;;;;;5075792;28;20203;-52
2021/01/31 11:14:56;;;;;;;1999.90;999.90;;;30.60;47.20;;;;;;5075753;28;20211;-55
2021/01/31 11:17:23;;;;;;;1999.90;999.90;;;30.70;47.00;;;;;;5075831;28;20164;-57
2021/01/31 11:19:50;;;;;;;1999.90;999.90;;;30.30;47.40;;;;;;5075713;28;20171;-46
2021/01/31 11:22:17;;;;;;;1999.90;999.90;;;30.10;48.60;;;;;;5075754;28;20198;-52
2021/01/31 11:24:45;;;;;;;1999.90;999.90;;;30.50;48.20;;;;;;5075721;28;20627;-52
2021/01/31 11:27:13;;;;;;;1999.90;999.90;;;30.60;47.10;;;;;;5075583;28;20258;-57
2021/01/31 11:29:40;;;;;;;1999.90;999.90;;;30.20;48.00;;;;;;5075454;28;20168;-54
2021/01/31 11:32:07;;;;;;;1999.90;999.90;;;30.20;48.30;;;;;;5075438;28;20646;-57
2021/01/31 11:34:34;;;;;;;1999.90;999.90;;;30.30;47.80;;;;;;5075424;28;20262;-58
2021/01/31 11:37:02;;;;;;;1999.90;999.90;;;30.10;48.50;;;;;;5075447;28;20638;-56
2021/01/31 11:39:29;;;;;;;1999.90;999.90;;;29.80;48.80;;;;;;5075391;28;20168;-50
2021/01/31 11:41:57;;;;;;;1999.90;999.90;;;29.80;49.50;;;;;;5075072;28;20172;-56
2021/01/31 11:44:25;;;;;;;1999.90;999.90;;;29.60;49.70;;;;;;5074920;28;20172;-58
2021/01/31 11:46:52;;;;;;;1999.90;999.90;;;29.30;49.80;;;;;;5074807;28;20659;-53
2021/01/31 11:49:19;;;;;;;1999.90;999.90;;;29.20;49.70;;;;;;5075170;28;20176;-56
2021/01/31 11:51:46;;;;;;;1999.90;999.90;;;29.20;50.00;;;;;;5074589;28;20160;-56
2021/01/31 11:54:13;;;;;;;1999.90;999.90;;;29.20;49.70;;;;;;5074941;28;20204;-58
2021/01/31 11:56:40;;;;;;;1999.90;999.90;;;29.10;50.20;;;;;;5074478;28;20161;-58
2021/01/31 11:59:07;;;;;;;1999.90;999.90;;;29.00;50.40;;;;;;5074137;28;20712;-58
2021/01/31 12:01:38;;;;;;;1999.90;999.90;;;29.10;50.40;;;;;;5074581;28;20223;-55
2021/01/31 12:04:06;;;;;;;1999.90;999.90;;;29.10;50.20;;;;;;5074247;28;20578;-50
2021/01/31 12:06:33;;;;;;;1999.90;999.90;;;29.10;49.90;;;;;;5074639;28;20160;-54
2021/01/31 12:09:01;;;;;;;1999.90;999.90;;;29.10;50.20;;;;;;5074571;28;20161;-58
2021/01/31 12:11:28;;;;;;;1999.90;999.90;;;29.30;49.70;;;;;;5074793;28;20164;-58
2021/01/31 12:13:57;;;;;;;1999.90;999.90;;;29.40;49.00;;;;;;5074996;28;20200;-54
2021/01/31 12:16:24;;;;;;;1999.90;999.90;;;29.50;48.90;;;;;;5074582;28;20267;-53
2021/01/31 12:18:51;;;;;;;1999.90;999.90;;;29.70;48.90;;;;;;5074842;28;20626;-55
2021/01/31 12:21:18;;;;;;;1999.90;999.90;;;29.70;48.40;;;;;;5074584;28;20164;-54
2021/01/31 12:23:45;;;;;;;1999.90;999.90;;;29.80;48.00;;;;;;5074589;28;20168;-54
2021/01/31 12:26:12;;;;;;;1999.90;999.90;;;29.90;47.90;;;;;;5074854;28;20526;-51
2021/01/31 12:28:39;;;;;;;1999.90;999.90;;;30.20;47.70;;;;;;5074583;28;20175;-56
2021/01/31 12:31:06;;;;;;;1999.90;999.90;;;30.70;46.00;;;;;;5074429;28;20171;-58
2021/01/31 12:33:33;;;;;;;1999.90;999.90;;;30.70;46.70;;;;;;5074354;28;20641;-55